createdAt,value
2017-11-16T00:00:51.482Z,51.60
2017-11-16T00:03:24.156Z,53.97
2017-11-16T00:05:57.590Z,52.43
2017-11-16T00:08:30.268Z,61.80
2017-11-16T00:11:02.714Z,70.20
2017-11-16T00:13:35.492Z,66.70
2017-11-16T00:16:07.993Z,66.37
2017-11-16T00:18:40.836Z,65.97
2017-11-16T00:21:14.254Z,71.00
2017-11-16T00:23:46.631Z,79.57
2017-11-16T00:26:19.993Z,61.03
2017-11-16T00:28:52.539Z,72.07
2017-11-16T00:31:25.085Z,72.77
2017-11-16T00:33:57.594Z,66.80
2017-11-16T00:36:30.915Z,69.13
2017-11-16T00:39:03.898Z,57.50
2017-11-16T00:41:37.881Z,62.97
2017-11-16T00:44:11.713Z,64.53
2017-11-16T00:46:44.491Z,65.17
2017-11-16T00:49:17.695Z,60.43
2017-11-16T00:51:50.395Z,51.70
2017-11-16T00:54:23.018Z,53.00
2017-11-16T00:56:56.434Z,43.50
2017-11-16T00:59:28.782Z,51.83
2017-11-16T01:02:02.019Z,60.07
2017-11-16T01:04:34.609Z,58.00
2017-11-16T01:07:07.948Z,53.10
2017-11-16T01:09:40.461Z,48.80
2017-11-16T01:12:12.980Z,40.27
2017-11-16T01:14:45.399Z,69.53
2017-11-16T01:17:17.882Z,64.20
2017-11-16T01:19:51.160Z,53.93
2017-11-16T01:22:23.690Z,71.50
2017-11-16T01:24:57.062Z,61.90
2017-11-16T01:27:29.639Z,69.90
2017-11-16T01:30:03.027Z,65.77
2017-11-16T01:32:36.362Z,63.83
2017-11-16T01:35:08.895Z,66.03
2017-11-16T01:37:42.047Z,58.13
2017-11-16T01:40:14.825Z,54.30
2017-11-16T01:42:47.259Z,47.30
2017-11-16T01:45:19.742Z,55.73
2017-11-16T01:47:52.710Z,46.53
2017-11-16T01:50:26.188Z,44.37
2017-11-16T01:52:59.705Z,58.27
2017-11-16T01:55:32.588Z,55.23
2017-11-16T01:58:05.126Z,62.30
2017-11-16T02:00:38.351Z,51.03
2017-11-16T02:03:11.905Z,53.83
2017-11-16T02:05:44.613Z,56.27
2017-11-16T02:08:18.004Z,51.20
2017-11-16T02:10:51.355Z,50.43
2017-11-16T02:13:24.133Z,46.10
2017-11-16T02:15:56.591Z,57.53
2017-11-16T02:18:29.089Z,49.47
2017-11-16T02:21:01.764Z,41.70
2017-11-16T02:23:35.102Z,44.13
2017-11-16T02:26:07.642Z,44.90
2017-11-16T02:28:41.030Z,48.27
2017-11-16T02:31:14.219Z,45.87
2017-11-16T02:33:47.616Z,44.10
2017-11-16T02:36:20.263Z,37.40
2017-11-16T02:38:52.780Z,52.07
2017-11-16T02:41:25.702Z,47.23
2017-11-16T02:43:58.951Z,37.87
2017-11-16T02:46:31.916Z,40.33
2017-11-16T02:49:05.268Z,65.53
2017-11-16T02:51:38.117Z,42.80
2017-11-16T02:54:10.565Z,51.20
2017-11-16T02:56:43.848Z,46.07
2017-11-16T02:59:16.596Z,41.30
2017-11-16T03:01:49.132Z,54.30
2017-11-16T03:04:21.824Z,58.17
2017-11-16T03:06:54.361Z,63.20
2017-11-16T03:09:27.149Z,65.57
2017-11-16T03:11:59.722Z,62.27
2017-11-16T03:14:32.234Z,49.27
2017-11-16T03:17:05.377Z,56.77
2017-11-16T03:19:38.249Z,41.67
2017-11-16T03:22:10.667Z,46.97
2017-11-16T03:24:43.120Z,39.27
2017-11-16T03:27:15.559Z,66.20
2017-11-16T03:29:48.168Z,52.67
2017-11-16T03:32:20.590Z,56.80
2017-11-16T03:34:52.999Z,42.70
2017-11-16T03:37:26.419Z,43.37
2017-11-16T03:39:58.983Z,51.40
2017-11-16T03:42:33.282Z,45.60
2017-11-16T03:45:05.677Z,73.47
2017-11-16T03:47:39.255Z,39.50
2017-11-16T03:50:12.650Z,55.73
2017-11-16T03:52:45.486Z,71.37
2017-11-16T03:55:18.014Z,72.07
2017-11-16T03:57:50.669Z,47.13
2017-11-16T04:00:24.070Z,69.80
2017-11-16T04:02:56.442Z,62.87
2017-11-16T04:05:28.917Z,38.80
2017-11-16T04:08:02.412Z,43.27
2017-11-16T04:10:34.931Z,49.57
2017-11-16T04:13:07.616Z,51.43
2017-11-16T04:15:40.430Z,69.93
2017-11-16T04:18:14.521Z,38.60
2017-11-16T04:20:47.508Z,55.60
2017-11-16T04:23:20.744Z,43.23
2017-11-16T04:25:53.554Z,50.33
2017-11-16T04:28:26.038Z,34.67
2017-11-16T04:30:59.399Z,36.67
2017-11-16T04:33:32.055Z,40.90
2017-11-16T04:36:04.618Z,40.70
2017-11-16T04:38:37.977Z,39.30
2017-11-16T04:41:11.257Z,51.30
2017-11-16T04:43:44.691Z,38.10
2017-11-16T04:46:17.221Z,39.73
2017-11-16T04:48:49.749Z,87.37
2017-11-16T04:51:22.181Z,61.43
2017-11-16T04:53:55.632Z,56.90
2017-11-16T04:56:28.809Z,69.27
2017-11-16T04:59:01.712Z,37.80
2017-11-16T05:01:34.182Z,47.37
2017-11-16T05:04:07.784Z,46.63
2017-11-16T05:06:40.491Z,47.70
2017-11-16T05:09:13.013Z,40.13
2017-11-16T05:11:45.641Z,45.37
2017-11-16T05:14:18.204Z,35.93
2017-11-16T05:16:51.034Z,45.90
2017-11-16T05:19:23.777Z,52.77
2017-11-16T05:21:56.538Z,41.77
2017-11-16T05:24:29.309Z,31.60
2017-11-16T05:27:02.618Z,47.73
2017-11-16T05:29:35.619Z,57.10
2017-11-16T05:32:08.105Z,33.90
2017-11-16T05:34:41.665Z,38.80
2017-11-16T05:37:14.192Z,39.13
2017-11-16T05:39:46.660Z,58.80
2017-11-16T05:42:20.221Z,46.23
2017-11-16T05:44:53.336Z,45.60
2017-11-16T05:47:26.630Z,36.70
2017-11-16T05:49:59.169Z,45.10
2017-11-16T05:52:32.644Z,58.43
2017-11-16T05:55:06.756Z,54.80
2017-11-16T05:57:39.536Z,37.53
2017-11-16T06:00:13.732Z,50.10
2017-11-16T06:02:46.393Z,57.07
2017-11-16T06:05:19.863Z,34.87
2017-11-16T06:07:52.316Z,31.60
2017-11-16T06:10:24.761Z,29.40
2017-11-16T06:12:57.350Z,55.27
2017-11-16T06:15:29.764Z,43.87
2017-11-16T06:18:02.214Z,39.63
2017-11-16T06:20:35.508Z,51.47
2017-11-16T06:23:08.426Z,40.57
2017-11-16T06:25:40.941Z,47.13
2017-11-16T06:28:14.300Z,45.63
2017-11-16T06:30:47.028Z,33.80
2017-11-16T06:33:19.711Z,33.07
2017-11-16T06:35:52.380Z,50.60
2017-11-16T06:38:25.606Z,52.20
2017-11-16T06:40:58.758Z,48.83
2017-11-16T06:43:31.417Z,38.57
2017-11-16T06:46:04.592Z,47.43
2017-11-16T06:48:37.327Z,39.40
2017-11-16T06:51:10.784Z,49.07
2017-11-16T06:53:44.055Z,39.00
2017-11-16T06:56:16.698Z,39.50
2017-11-16T06:58:50.796Z,41.60
2017-11-16T07:01:23.765Z,44.47
2017-11-16T07:03:56.176Z,41.67
2017-11-16T07:06:30.330Z,46.27
2017-11-16T07:09:03.010Z,38.03
2017-11-16T07:11:36.200Z,44.23
2017-11-16T07:14:08.695Z,46.60
2017-11-16T07:16:42.070Z,42.40
2017-11-16T07:19:14.529Z,62.67
2017-11-16T07:21:47.778Z,51.37
2017-11-16T07:24:20.213Z,62.63
2017-11-16T07:26:52.836Z,51.23
2017-11-16T07:29:26.135Z,37.43
2017-11-16T07:31:58.581Z,45.53
2017-11-16T07:34:30.986Z,38.63
2017-11-16T07:37:03.578Z,43.07
2017-11-16T07:39:36.074Z,47.60
2017-11-16T07:42:08.956Z,49.23
2017-11-16T07:44:41.465Z,40.60
2017-11-16T07:47:14.271Z,45.60
2017-11-16T07:49:47.647Z,43.27
2017-11-16T07:52:21.135Z,47.67
2017-11-16T07:54:53.739Z,31.47
2017-11-16T07:57:26.512Z,38.77
2017-11-16T07:59:58.973Z,45.43
2017-11-16T08:02:32.334Z,48.70
2017-11-16T08:05:05.595Z,52.57
2017-11-16T08:07:38.674Z,40.33
2017-11-16T08:10:11.927Z,47.73
2017-11-16T08:12:46.057Z,50.97
2017-11-16T08:15:19.545Z,36.90
2017-11-16T08:17:52.962Z,42.40
2017-11-16T08:20:25.609Z,39.93
2017-11-16T08:22:57.970Z,38.93
2017-11-16T08:25:31.303Z,33.30
2017-11-16T08:28:03.960Z,38.17
2017-11-16T08:30:37.218Z,27.43
2017-11-16T08:33:09.870Z,36.27
2017-11-16T08:35:43.116Z,36.33
2017-11-16T08:38:16.553Z,37.03
2017-11-16T08:40:49.076Z,34.17
2017-11-16T08:43:22.494Z,31.43
2017-11-16T08:45:55.077Z,35.37
2017-11-16T08:48:27.632Z,35.00
2017-11-16T08:51:07.262Z,40.93
2017-11-16T08:53:40.158Z,35.13
2017-11-16T08:56:13.137Z,42.90
2017-11-16T08:58:45.723Z,35.77
2017-11-16T09:01:18.597Z,29.27
2017-11-16T09:03:51.373Z,35.57
2017-11-16T09:06:23.860Z,34.30
2017-11-16T09:08:56.403Z,36.57
2017-11-16T09:11:28.839Z,31.80
2017-11-16T09:14:02.167Z,41.80
2017-11-16T09:16:35.437Z,36.80
2017-11-16T09:19:09.599Z,34.40
2017-11-16T09:21:42.334Z,29.60
2017-11-16T09:24:15.741Z,35.57
2017-11-16T09:26:48.446Z,23.77
2017-11-16T09:29:21.036Z,32.13
2017-11-16T09:31:53.664Z,39.67
2017-11-16T09:34:27.787Z,31.87
2017-11-16T09:37:00.420Z,28.77
2017-11-16T09:39:32.960Z,40.57
2017-11-16T09:42:05.412Z,29.80
2017-11-16T09:44:38.747Z,31.53
2017-11-16T09:47:12.134Z,25.97
2017-11-16T09:49:44.910Z,31.90
2017-11-16T09:52:18.352Z,52.17
2017-11-16T09:54:51.554Z,35.37
2017-11-16T09:57:24.409Z,43.40
2017-11-16T09:59:58.010Z,33.23
2017-11-16T10:02:31.175Z,30.00
2017-11-16T10:05:05.209Z,27.83
2017-11-16T10:07:37.844Z,27.73
2017-11-16T10:10:10.311Z,30.50
2017-11-16T10:12:44.650Z,29.10
2017-11-16T10:15:17.106Z,31.30
2017-11-16T10:17:49.805Z,28.80
2017-11-16T10:20:22.319Z,34.13
2017-11-16T10:22:54.705Z,44.43
2017-11-16T10:25:27.445Z,31.37
2017-11-16T10:28:00.763Z,30.10
2017-11-16T10:30:33.317Z,31.13
2017-11-16T10:33:06.654Z,29.33
2017-11-16T10:35:40.125Z,33.43
2017-11-16T10:38:12.940Z,22.20
2017-11-16T10:40:45.339Z,27.47
2017-11-16T10:43:17.749Z,39.53
2017-11-16T10:45:50.335Z,24.97
2017-11-16T10:48:22.823Z,28.53
2017-11-16T10:50:55.209Z,31.03
2017-11-16T10:53:27.636Z,32.83
2017-11-16T10:56:00.038Z,28.83
2017-11-16T10:58:32.683Z,41.77
2017-11-16T11:01:06.087Z,32.00
2017-11-16T11:03:39.243Z,29.33
2017-11-16T11:06:12.067Z,31.13
2017-11-16T11:08:46.109Z,43.10
2017-11-16T11:11:19.675Z,32.53
2017-11-16T11:13:52.354Z,28.57
2017-11-16T11:16:24.859Z,38.33
2017-11-16T11:18:57.333Z,42.83
2017-11-16T11:21:29.956Z,33.93
2017-11-16T11:24:03.556Z,35.90
2017-11-16T11:26:36.435Z,27.90
2017-11-16T11:29:10.509Z,34.07
2017-11-16T11:31:44.127Z,35.10
2017-11-16T11:34:17.522Z,47.07
2017-11-16T11:36:50.510Z,40.33
2017-11-16T11:39:23.874Z,36.17
2017-11-16T11:41:57.204Z,26.80
2017-11-16T11:44:30.549Z,27.17
2017-11-16T11:47:03.530Z,29.57
2017-11-16T11:49:36.028Z,36.27
2017-11-16T11:52:08.513Z,26.77
2017-11-16T11:54:40.964Z,27.37
2017-11-16T11:57:13.567Z,23.90
2017-11-16T11:59:46.847Z,35.40
2017-11-16T12:02:19.659Z,30.47
2017-11-16T12:04:53.106Z,20.03
2017-11-16T12:07:26.352Z,26.00
2017-11-16T12:09:59.113Z,20.67
2017-11-16T12:12:32.315Z,22.00
2017-11-16T12:15:05.091Z,25.90
2017-11-16T12:17:37.523Z,21.20
2017-11-16T12:20:10.055Z,32.03
2017-11-16T12:22:42.732Z,28.70
2017-11-16T12:25:15.984Z,31.17
2017-11-16T12:27:49.707Z,31.47
2017-11-16T12:30:22.362Z,24.13
2017-11-16T12:32:55.154Z,19.73
2017-11-16T12:35:28.285Z,25.47
2017-11-16T12:38:00.776Z,27.57
2017-11-16T12:40:33.359Z,24.60
2017-11-16T12:43:06.729Z,18.70
2017-11-16T12:45:39.538Z,19.70
2017-11-16T12:48:12.765Z,18.90
2017-11-16T12:50:45.454Z,32.23
2017-11-16T12:53:18.043Z,27.97
2017-11-16T12:55:51.353Z,30.83
2017-11-16T12:58:24.749Z,26.10
2017-11-16T13:00:57.214Z,27.53
2017-11-16T13:03:29.941Z,27.10
2017-11-16T13:06:03.317Z,24.80
2017-11-16T13:08:36.728Z,32.00
2017-11-16T13:11:10.124Z,34.27
2017-11-16T13:13:42.689Z,30.80
2017-11-16T13:16:15.136Z,23.70
2017-11-16T13:18:47.738Z,39.30
2017-11-16T13:21:20.193Z,22.77
2017-11-16T13:23:52.605Z,39.30
2017-11-16T13:26:25.181Z,34.33
2017-11-16T13:28:57.693Z,29.03
2017-11-16T13:31:30.190Z,27.30
2017-11-16T13:34:02.902Z,26.50
2017-11-16T13:36:36.977Z,37.30
2017-11-16T13:39:09.965Z,30.30
2017-11-16T13:41:42.377Z,28.23
2017-11-16T13:44:15.161Z,33.30
2017-11-16T13:46:47.833Z,34.50
2017-11-16T13:49:20.313Z,44.77
2017-11-16T13:51:52.971Z,33.37
2017-11-16T13:54:26.372Z,47.47
2017-11-16T13:56:59.741Z,33.83
2017-11-16T13:59:32.227Z,33.60
2017-11-16T14:02:04.657Z,34.93
2017-11-16T14:04:37.133Z,33.40
2017-11-16T14:07:10.518Z,41.53
2017-11-16T14:09:44.054Z,34.30
2017-11-16T14:12:17.417Z,29.50
2017-11-16T14:14:50.446Z,35.07
2017-11-16T14:17:24.574Z,23.63
2017-11-16T14:19:57.252Z,34.20
2017-11-16T14:22:30.599Z,28.17
2017-11-16T14:25:03.326Z,42.87
2017-11-16T14:27:35.922Z,29.60
2017-11-16T14:30:09.151Z,31.70
2017-11-16T14:32:42.517Z,28.90
2017-11-16T14:35:15.257Z,29.10
2017-11-16T14:37:47.678Z,37.97
2017-11-16T14:40:20.226Z,32.33
2017-11-16T14:42:52.653Z,22.43
2017-11-16T14:45:26.185Z,26.63
2017-11-16T14:47:59.825Z,34.67
2017-11-16T14:50:32.681Z,35.60
2017-11-16T14:53:05.145Z,35.03
2017-11-16T14:55:38.623Z,34.87
2017-11-16T14:58:11.177Z,32.23
2017-11-16T15:00:44.082Z,43.27
2017-11-16T15:03:17.377Z,43.80
2017-11-16T15:05:50.738Z,33.40
2017-11-16T15:08:24.118Z,30.13
2017-11-16T15:10:57.649Z,31.90
2017-11-16T15:13:30.419Z,39.97
2017-11-16T15:16:02.877Z,38.90
2017-11-16T15:18:36.257Z,28.20
2017-11-16T15:21:09.077Z,30.33
2017-11-16T15:23:42.438Z,29.87
2017-11-16T15:26:14.850Z,40.17
2017-11-16T15:28:48.293Z,31.67
2017-11-16T15:31:20.738Z,31.60
2017-11-16T15:33:53.221Z,34.67
2017-11-16T15:36:25.971Z,37.13
2017-11-16T15:38:59.941Z,34.67
2017-11-16T15:41:32.608Z,29.57
2017-11-16T15:44:04.980Z,25.40
2017-11-16T15:46:37.560Z,25.80
2017-11-16T15:49:10.788Z,33.30
2017-11-16T15:51:43.591Z,25.07
2017-11-16T15:54:16.864Z,28.07
2017-11-16T15:56:49.518Z,36.13
2017-11-16T15:59:21.886Z,41.47
2017-11-16T16:01:54.538Z,31.63
2017-11-16T16:04:27.919Z,35.10
2017-11-16T16:07:00.449Z,32.77
2017-11-16T16:09:33.565Z,32.60
2017-11-16T16:12:06.746Z,34.93
2017-11-16T16:14:39.494Z,29.87
2017-11-16T16:17:12.081Z,27.63
2017-11-16T16:19:44.568Z,32.10
2017-11-16T16:22:17.761Z,32.93
2017-11-16T16:24:50.503Z,30.73
2017-11-16T16:27:23.029Z,28.90
2017-11-16T16:29:55.587Z,46.07
2017-11-16T16:32:28.928Z,27.37
2017-11-16T16:35:02.314Z,37.23
2017-11-16T16:37:35.177Z,37.50
2017-11-16T16:40:08.460Z,32.50
2017-11-16T16:42:41.387Z,42.33
2017-11-16T16:45:15.312Z,33.20
2017-11-16T16:47:49.225Z,53.40
2017-11-16T16:50:21.706Z,34.20
2017-11-16T16:52:54.274Z,56.53
2017-11-16T16:55:26.734Z,40.30
2017-11-16T16:57:59.285Z,36.30
2017-11-16T17:00:32.470Z,43.80
2017-11-16T17:03:05.204Z,42.03
2017-11-16T17:05:37.673Z,49.13
2017-11-16T17:08:12.160Z,40.20
2017-11-16T17:10:45.519Z,38.40
2017-11-16T17:13:18.336Z,46.07
2017-11-16T17:15:51.602Z,36.10
2017-11-16T17:18:24.129Z,35.70
2017-11-16T17:20:57.564Z,36.10
2017-11-16T17:23:30.257Z,41.47
2017-11-16T17:26:03.743Z,36.30
2017-11-16T17:28:36.621Z,36.20
2017-11-16T17:31:10.016Z,36.30
2017-11-16T17:33:43.467Z,34.23
2017-11-16T17:36:16.959Z,25.80
2017-11-16T17:38:49.401Z,32.20
2017-11-16T17:41:21.871Z,37.80
2017-11-16T17:43:55.251Z,31.97
2017-11-16T17:46:27.723Z,37.03
2017-11-16T17:49:00.232Z,32.87
2017-11-16T17:51:33.466Z,30.00
2017-11-16T17:54:06.160Z,27.47
2017-11-16T17:56:38.691Z,31.27
2017-11-16T17:59:11.244Z,25.70
2017-11-16T18:01:44.540Z,30.73
2017-11-16T18:04:17.990Z,28.03
2017-11-16T18:06:51.389Z,25.13
2017-11-16T18:09:24.830Z,29.83
2017-11-16T18:11:57.282Z,27.33
2017-11-16T18:14:29.923Z,31.20
2017-11-16T18:17:03.430Z,31.77
2017-11-16T18:19:35.879Z,42.47
2017-11-16T18:22:09.249Z,31.37
2017-11-16T18:24:42.636Z,32.53
2017-11-16T18:27:16.233Z,36.53
2017-11-16T18:29:49.301Z,32.83
2017-11-16T18:32:22.542Z,26.73
2017-11-16T18:34:55.899Z,35.53
2017-11-16T18:37:28.887Z,24.40
2017-11-16T18:40:01.375Z,31.57
2017-11-16T18:42:34.254Z,42.60
2017-11-16T18:45:07.349Z,26.80
2017-11-16T18:47:40.895Z,36.43
2017-11-16T18:50:14.459Z,27.80
2017-11-16T18:52:48.670Z,34.07
2017-11-16T18:55:22.281Z,31.87
2017-11-16T18:57:55.489Z,28.90
2017-11-16T19:00:29.135Z,37.33
2017-11-16T19:03:03.066Z,33.97
2017-11-16T19:05:38.403Z,35.97
2017-11-16T19:08:13.952Z,37.97
2017-11-16T19:10:49.267Z,28.80
2017-11-16T19:13:25.442Z,22.73
2017-11-16T19:16:01.234Z,27.40
2017-11-16T19:18:36.476Z,29.30
2017-11-16T19:21:12.688Z,30.50
2017-11-16T19:23:47.641Z,34.87
2017-11-16T19:26:23.486Z,31.17
2017-11-16T19:28:58.739Z,38.43
2017-11-16T19:31:34.472Z,29.90
2017-11-16T19:34:10.629Z,42.40
2017-11-16T19:36:46.787Z,28.40
2017-11-16T19:39:22.606Z,31.40
2017-11-16T19:41:58.443Z,29.43
2017-11-16T19:44:34.774Z,36.90
2017-11-16T19:47:10.568Z,32.67
2017-11-16T19:49:46.079Z,30.73
2017-11-16T19:52:21.805Z,33.23
2017-11-16T19:54:57.087Z,31.97
2017-11-16T19:57:32.517Z,33.27
2017-11-16T20:00:08.012Z,46.60
2017-11-16T20:02:43.399Z,40.83
2017-11-16T20:05:18.622Z,42.27
2017-11-16T20:07:54.329Z,43.00
2017-11-16T20:10:29.458Z,41.50
2017-11-16T20:13:05.646Z,31.60
2017-11-16T20:15:41.376Z,46.23
2017-11-16T20:18:16.889Z,38.07
2017-11-16T20:20:52.225Z,47.30
2017-11-16T20:23:27.653Z,50.90
2017-11-16T20:26:04.000Z,42.67
2017-11-16T20:28:39.728Z,48.13
2017-11-16T20:31:15.022Z,38.10
2017-11-16T20:33:51.950Z,50.87
2017-11-16T20:36:27.422Z,40.77
2017-11-16T20:39:07.767Z,39.23
2017-11-16T20:44:54.118Z,39.57
2017-11-16T20:47:31.909Z,42.93
2017-11-16T20:50:13.324Z,41.07
2017-11-16T20:53:02.995Z,45.30
2017-11-16T20:55:38.084Z,39.50
2017-11-16T20:58:14.170Z,52.10
2017-11-16T21:00:48.384Z,39.13
2017-11-16T21:03:24.636Z,39.03
2017-11-16T21:06:01.531Z,39.10
2017-11-16T21:08:37.022Z,44.37
2017-11-16T21:11:12.472Z,46.00
2017-11-16T21:13:47.774Z,33.73
2017-11-16T21:16:24.005Z,33.33
2017-11-16T21:18:59.959Z,34.87
2017-11-16T21:21:36.131Z,37.07
2017-11-16T21:24:12.064Z,41.13
2017-11-16T21:26:48.380Z,45.33
2017-11-16T21:29:24.645Z,41.53
2017-11-16T21:31:59.518Z,58.40
2017-11-16T21:34:35.321Z,41.30
2017-11-16T21:37:09.844Z,38.50
2017-11-16T21:39:42.943Z,40.10
2017-11-16T21:42:16.915Z,45.47
2017-11-16T21:44:49.629Z,37.87
2017-11-16T21:47:22.456Z,38.57
2017-11-16T21:49:55.818Z,36.20
2017-11-16T21:52:29.352Z,30.90
2017-11-16T21:55:03.499Z,48.97
2017-11-16T21:57:36.333Z,47.10
2017-11-16T22:00:09.217Z,49.33
2017-11-16T22:02:42.706Z,48.20
2017-11-16T22:05:16.162Z,29.37
2017-11-16T22:07:49.378Z,57.73
2017-11-16T22:10:22.174Z,43.10
2017-11-16T22:12:55.760Z,44.70
2017-11-16T22:15:29.186Z,36.10
2017-11-16T22:18:01.691Z,35.93
2017-11-16T22:20:34.338Z,37.77
2017-11-16T22:23:06.858Z,40.93
2017-11-16T22:25:40.314Z,46.73
2017-11-16T22:28:13.710Z,39.17
2017-11-16T22:30:46.440Z,43.30
2017-11-16T22:33:19.093Z,34.60
2017-11-16T22:35:51.575Z,38.90
2017-11-16T22:38:24.934Z,42.20
2017-11-16T22:40:58.981Z,36.43
2017-11-16T22:43:31.958Z,38.40
2017-11-16T22:46:04.973Z,26.20
2017-11-16T22:48:37.576Z,42.33
2017-11-16T22:51:10.839Z,31.17
2017-11-16T22:53:43.433Z,36.97
2017-11-16T22:56:16.626Z,28.90
2017-11-16T22:58:49.327Z,30.83
2017-11-16T23:01:21.923Z,50.87
2017-11-16T23:03:54.537Z,42.93
2017-11-16T23:06:27.925Z,44.30
2017-11-16T23:09:01.467Z,42.47
2017-11-16T23:11:34.155Z,45.80
2017-11-16T23:14:06.678Z,33.97
2017-11-16T23:16:40.236Z,37.87
2017-11-16T23:19:12.716Z,34.23
2017-11-16T23:21:45.269Z,30.77
2017-11-16T23:24:17.741Z,37.17
2017-11-16T23:26:50.436Z,29.10
2017-11-16T23:29:23.870Z,39.33
2017-11-16T23:31:56.312Z,33.30
2017-11-16T23:34:29.726Z,28.87
2017-11-16T23:37:03.231Z,48.67
2017-11-16T23:39:35.687Z,27.20
2017-11-16T23:42:08.238Z,48.27
2017-11-16T23:44:40.906Z,34.60
2017-11-16T23:47:14.298Z,37.77
2017-11-16T23:49:47.113Z,29.47
2017-11-16T23:52:20.390Z,36.63
2017-11-16T23:54:53.947Z,31.43
2017-11-16T23:57:26.523Z,24.37
